Time;durP1;ratioP1;P1;durP2;ratioP2;P2;SDS_P1;SDS_P2;PMS_P1;PMS_P2;Temp;Humidity;BMP_temperature;BMP_pressure;BME280_temperature;BME280_humidity;BME280_pressure;Samples;Min_cycle;Max_cycle;Signal;HPM_P1;HPM_P2
2022/03/17 00:01:39;;;;;;;1999.90;999.90;;;7.10;99.90;;;;;;5055628;28;20442;-72
2022/03/17 00:04:08;;;;;;;1999.90;999.90;;;7.00;99.90;;;;;;5054685;28;20466;-70
2022/03/17 00:06:36;;;;;;;1999.90;999.90;;;7.10;99.90;;;;;;5055893;28;20466;-70
2022/03/17 00:09:04;;;;;;;1999.90;999.90;;;7.10;99.90;;;;;;5055182;28;20504;-71
2022/03/17 00:11:30;;;;;;;1999.90;999.90;;;7.20;99.90;;;;;;5055950;28;20478;-71
2022/03/17 00:13:57;;;;;;;1999.90;999.90;;;7.20;99.90;;;;;;5057037;28;20973;-71
2022/03/17 00:16:24;;;;;;;1999.90;999.90;;;7.20;99.90;;;;;;5056945;28;20555;-71
2022/03/17 00:18:51;;;;;;;1999.90;999.90;;;7.20;99.90;;;;;;5057510;28;20450;-71
2022/03/17 00:21:17;;;;;;;1999.90;999.90;;;7.30;99.90;;;;;;5056402;28;20533;-71
2022/03/17 00:23:45;;;;;;;1999.90;999.90;;;7.30;99.90;;;;;;5055181;28;20533;-71
2022/03/17 00:26:12;;;;;;;1999.90;999.90;;;7.20;99.90;;;;;;5054252;28;21155;-71
2022/03/17 00:28:39;;;;;;;1999.90;999.90;;;7.20;99.90;;;;;;5054954;28;20446;-71
2022/03/17 00:31:05;;;;;;;1999.90;999.90;;;7.20;99.90;;;;;;5055130;28;20524;-71
2022/03/17 00:33:32;;;;;;;1999.90;999.90;;;7.20;99.90;;;;;;5053851;28;20451;-71
2022/03/17 00:35:59;;;;;;;1999.90;999.90;;;7.20;99.90;;;;;;5055649;28;21021;-71
2022/03/17 00:38:25;;;;;;;1999.90;999.90;;;7.10;99.90;;;;;;5056676;28;21009;-71
2022/03/17 00:40:53;;;;;;;1999.90;999.90;;;7.20;99.90;;;;;;5057131;28;20446;-71
2022/03/17 00:43:22;;;;;;;1999.90;999.90;;;7.10;99.90;;;;;;5055673;28;20451;-71
2022/03/17 00:45:49;;;;;;;1999.90;999.90;;;7.20;99.90;;;;;;5056035;28;20490;-71
2022/03/17 00:48:16;;;;;;;1999.90;999.90;;;7.20;99.90;;;;;;5056452;28;20454;-71
2022/03/17 00:50:42;;;;;;;1999.90;999.90;;;7.20;99.90;;;;;;5056806;28;20500;-71
2022/03/17 00:53:09;;;;;;;1999.90;999.90;;;7.30;99.90;;;;;;5055839;28;20447;-72
2022/03/17 00:55:36;;;;;;;1999.90;999.90;;;7.30;99.90;;;;;;5057139;28;20501;-71
2022/03/17 00:58:04;;;;;;;1999.90;999.90;;;7.30;99.90;;;;;;5056541;28;20481;-72
2022/03/17 01:00:31;;;;;;;1999.90;999.90;;;7.40;99.90;;;;;;5056279;28;20537;-72
2022/03/17 01:02:58;;;;;;;1999.90;999.90;;;7.50;99.90;;;;;;5056698;28;20450;-71
2022/03/17 01:05:25;;;;;;;1999.90;999.90;;;7.60;99.90;;;;;;5056147;28;20569;-70
2022/03/17 01:07:54;;;;;;;1999.90;999.90;;;7.60;99.90;;;;;;5056588;28;20454;-72
2022/03/17 01:10:21;;;;;;;1999.90;999.90;;;7.60;99.90;;;;;;5055988;28;20953;-71
2022/03/17 01:12:50;;;;;;;1999.90;999.90;;;7.60;99.90;;;;;;5055670;28;20454;-71
2022/03/17 01:15:19;;;;;;;1999.90;999.90;;;7.60;99.90;;;;;;5055700;28;20482;-71
2022/03/17 01:17:46;;;;;;;1999.90;999.90;;;7.60;99.90;;;;;;5058567;28;20450;-71
2022/03/17 01:20:13;;;;;;;1999.90;999.90;;;7.60;99.90;;;;;;5062292;28;20472;-71
2022/03/17 01:22:40;;;;;;;1999.90;999.90;;;7.60;99.90;;;;;;5062352;28;20511;-71
2022/03/17 01:25:08;;;;;;;1999.90;999.90;;;7.60;99.90;;;;;;5061679;28;20508;-72
2022/03/17 01:27:35;;;;;;;1999.90;999.90;;;7.60;99.90;;;;;;5062378;28;20453;-71
2022/03/17 01:30:03;;;;;;;1999.90;999.90;;;7.60;99.90;;;;;;5060828;28;20966;-71
2022/03/17 01:32:32;;;;;;;1999.90;999.90;;;7.60;99.90;;;;;;5062326;28;20446;-71
2022/03/17 01:34:59;;;;;;;1999.90;999.90;;;7.10;99.90;;;;;;5062911;28;20844;-71
2022/03/17 01:37:27;;;;;;;1999.90;999.90;;;6.70;99.90;;;;;;5062144;28;20474;-72
2022/03/17 01:39:54;;;;;;;1999.90;999.90;;;6.30;99.90;;;;;;5062763;28;20476;-72
2022/03/17 01:42:21;;;;;;;1999.90;999.90;;;6.10;99.90;;;;;;5062956;28;20460;-71
2022/03/17 01:44:47;;;;;;;1999.90;999.90;;;6.10;99.90;;;;;;5063375;28;20544;-72
2022/03/17 01:47:29;;;;;;;1999.90;999.90;;;6.00;99.90;;;;;;5063547;28;20454;-71
2022/03/17 01:49:59;;;;;;;1999.90;999.90;;;6.00;99.90;;;;;;5063659;28;20863;-71
2022/03/17 01:52:26;;;;;;;1999.90;999.90;;;6.00;99.90;;;;;;5063529;28;20445;-70
2022/03/17 01:54:54;;;;;;;1999.90;999.90;;;5.90;99.90;;;;;;5062778;28;20454;-71
2022/03/17 01:57:21;;;;;;;1999.90;999.90;;;6.00;99.90;;;;;;5063085;28;20506;-71
2022/03/17 01:59:49;;;;;;;1999.90;999.90;;;6.10;99.90;;;;;;5062723;28;20905;-71
2022/03/17 02:02:16;;;;;;;1999.90;999.90;;;6.20;99.90;;;;;;5063088;28;20446;-70
2022/03/17 02:04:43;;;;;;;1999.90;999.90;;;6.30;99.90;;;;;;5062215;28;20500;-70
2022/03/17 02:07:13;;;;;;;1999.90;999.90;;;6.30;99.90;;;;;;5061649;28;20454;-71
2022/03/17 02:09:40;;;;;;;1999.90;999.90;;;6.30;99.90;;;;;;5063262;28;20460;-71
2022/03/17 02:14:54;;;;;;;1999.90;999.90;;;6.80;99.90;;;;;;5062878;28;20823;-70
2022/03/17 02:17:23;;;;;;;1999.90;999.90;;;6.90;99.90;;;;;;5062914;28;20517;-71
2022/03/17 02:19:50;;;;;;;1999.90;999.90;;;7.00;99.90;;;;;;5063059;28;21004;-71
2022/03/17 02:22:22;;;;;;;1999.90;999.90;;;7.00;99.90;;;;;;5061715;28;20477;-71
2022/03/17 02:27:41;;;;;;;1999.90;999.90;;;7.10;99.90;;;;;;5061473;28;20909;-71
2022/03/17 02:30:10;;;;;;;1999.90;999.90;;;7.20;99.90;;;;;;5058246;28;20912;-70
2022/03/17 02:32:37;;;;;;;1999.90;999.90;;;7.30;99.90;;;;;;5059339;28;20500;-71
2022/03/17 02:35:06;;;;;;;1999.90;999.90;;;7.40;99.90;;;;;;5059079;28;20825;-70
2022/03/17 02:37:33;;;;;;;1999.90;999.90;;;7.30;99.90;;;;;;5059702;28;20539;-71
2022/03/17 02:40:01;;;;;;;1999.90;999.90;;;7.30;99.90;;;;;;5058510;28;20442;-72
2022/03/17 02:42:30;;;;;;;1999.90;999.90;;;7.50;99.90;;;;;;5057796;28;20500;-72
2022/03/17 02:44:57;;;;;;;1999.90;999.90;;;7.40;99.90;;;;;;5059073;28;20442;-71
2022/03/17 02:47:24;;;;;;;1999.90;999.90;;;7.30;99.90;;;;;;5058917;28;20523;-71
2022/03/17 02:49:52;;;;;;;1999.90;999.90;;;7.20;99.90;;;;;;5058610;28;21079;-71
2022/03/17 02:52:19;;;;;;;1999.90;999.90;;;7.20;99.90;;;;;;5058068;28;20873;-71
2022/03/17 02:54:46;;;;;;;1999.90;999.90;;;7.20;99.90;;;;;;5057815;28;20946;-71
2022/03/17 02:57:14;;;;;;;1999.90;999.90;;;7.20;99.90;;;;;;5058442;28;20592;-70
2022/03/17 02:59:41;;;;;;;1999.90;999.90;;;7.20;99.90;;;;;;5047240;28;20451;-72
2022/03/17 03:02:08;;;;;;;1999.90;999.90;;;7.20;99.90;;;;;;5058515;28;20450;-71
2022/03/17 03:04:34;;;;;;;1999.90;999.90;;;7.20;99.90;;;;;;5058303;28;20499;-71
2022/03/17 03:07:02;;;;;;;1999.90;999.90;;;7.30;99.90;;;;;;5058086;28;20462;-71
2022/03/17 03:09:28;;;;;;;1999.90;999.90;;;7.30;99.90;;;;;;5058339;28;20507;-71
2022/03/17 03:11:55;;;;;;;1999.90;999.90;;;7.30;99.90;;;;;;5057653;28;20472;-70
2022/03/17 03:14:23;;;;;;;1999.90;999.90;;;7.30;99.90;;;;;;5058163;28;20514;-71
2022/03/17 03:16:50;;;;;;;1999.90;999.90;;;7.30;99.90;;;;;;5057916;28;20547;-71
2022/03/17 03:19:16;;;;;;;1999.90;999.90;;;7.40;99.90;;;;;;5058238;28;20523;-71
2022/03/17 03:21:44;;;;;;;1999.90;999.90;;;7.40;99.90;;;;;;5057781;28;20943;-71
2022/03/17 03:24:11;;;;;;;1999.90;999.90;;;7.40;99.90;;;;;;5057800;28;20453;-71
2022/03/17 03:26:38;;;;;;;1999.90;999.90;;;7.50;99.90;;;;;;5058958;28;20462;-71
2022/03/17 03:29:05;;;;;;;1999.90;999.90;;;7.50;99.90;;;;;;5057565;28;20450;-72
2022/03/17 03:31:34;;;;;;;1999.90;999.90;;;7.60;99.90;;;;;;5057651;28;20450;-71
2022/03/17 03:34:01;;;;;;;1999.90;999.90;;;7.60;99.90;;;;;;5057478;28;20457;-70
2022/03/17 03:39:12;;;;;;;1999.90;999.90;;;7.50;99.90;;;;;;5058144;28;20510;-71
2022/03/17 03:41:39;;;;;;;1999.90;999.90;;;7.60;99.90;;;;;;5057442;28;20887;-71
2022/03/17 03:44:05;;;;;;;1999.90;999.90;;;7.50;99.90;;;;;;5057638;28;20454;-71
2022/03/17 03:46:34;;;;;;;1999.90;999.90;;;7.50;99.90;;;;;;5057652;28;20466;-70
2022/03/17 03:49:00;;;;;;;1999.90;999.90;;;7.60;99.90;;;;;;5057087;28;21011;-71
2022/03/17 03:51:27;;;;;;;1999.90;999.90;;;7.60;99.90;;;;;;5057034;28;20854;-70
2022/03/17 03:56:37;;;;;;;1999.90;999.90;;;7.60;99.90;;;;;;5057108;28;21044;-71
2022/03/17 03:59:04;;;;;;;1999.90;999.90;;;7.60;99.90;;;;;;5056555;28;20447;-71
2022/03/17 04:01:33;;;;;;;1999.90;999.90;;;7.60;99.90;;;;;;5057081;28;20465;-71
2022/03/17 04:04:00;;;;;;;1999.90;999.90;;;7.70;99.90;;;;;;5058100;28;20446;-71
2022/03/17 04:06:27;;;;;;;1999.90;999.90;;;7.60;99.90;;;;;;5057464;28;20501;-70
2022/03/17 04:08:54;;;;;;;1999.90;999.90;;;7.60;99.90;;;;;;5057292;28;20455;-71
2022/03/17 04:11:20;;;;;;;1999.90;999.90;;;7.60;99.90;;;;;;5056540;28;20477;-71
2022/03/17 04:13:47;;;;;;;1999.90;999.90;;;7.70;99.90;;;;;;5057978;28;20450;-71
2022/03/17 04:16:13;;;;;;;1999.90;999.90;;;7.70;99.90;;;;;;5056868;28;20482;-71
2022/03/17 04:18:41;;;;;;;1999.90;999.90;;;7.70;99.90;;;;;;5056572;28;20438;-72
2022/03/17 04:21:08;;;;;;;1999.90;999.90;;;7.80;99.90;;;;;;5056777;28;20869;-71
2022/03/17 04:23:35;;;;;;;1999.90;999.90;;;7.80;99.90;;;;;;5056642;28;20450;-70
2022/03/17 04:26:01;;;;;;;1999.90;999.90;;;7.90;99.90;;;;;;5056305;28;20520;-70
2022/03/17 04:28:28;;;;;;;1999.90;999.90;;;7.90;99.90;;;;;;5057411;28;20865;-71
2022/03/17 04:30:55;;;;;;;1999.90;999.90;;;7.80;99.90;;;;;;5056266;28;20458;-71
2022/03/17 04:33:21;;;;;;;1999.90;999.90;;;7.80;99.90;;;;;;5056467;28;20450;-71
2022/03/17 04:35:49;;;;;;;1999.90;999.90;;;7.80;99.90;;;;;;5055724;28;20492;-71
2022/03/17 04:38:16;;;;;;;1999.90;999.90;;;7.60;99.90;;;;;;5056961;28;20867;-71
2022/03/17 04:40:48;;;;;;;1999.90;999.90;;;7.40;99.90;;;;;;5056866;28;20446;-72
2022/03/17 04:43:17;;;;;;;1999.90;999.90;;;7.40;99.90;;;;;;5056515;28;20450;-72
2022/03/17 04:45:44;;;;;;;1999.90;999.90;;;7.40;99.90;;;;;;5056905;28;20505;-71
2022/03/17 04:48:11;;;;;;;1999.90;999.90;;;7.30;99.90;;;;;;5057046;28;20446;-71
2022/03/17 04:50:37;;;;;;;1999.90;999.90;;;7.30;99.90;;;;;;5055197;28;20458;-71
2022/03/17 04:55:50;;;;;;;1999.90;999.90;;;7.30;99.90;;;;;;5056056;28;20485;-71
2022/03/17 04:58:17;;;;;;;1999.90;999.90;;;7.40;99.90;;;;;;5055987;28;20501;-70
2022/03/17 05:00:44;;;;;;;1999.90;999.90;;;7.40;99.90;;;;;;5055434;28;20446;-71
2022/03/17 05:03:11;;;;;;;1999.90;999.90;;;7.30;99.90;;;;;;5055754;28;20835;-71
2022/03/17 05:05:38;;;;;;;1999.90;999.90;;;7.30;99.90;;;;;;5055841;28;20469;-71
2022/03/17 05:08:07;;;;;;;1999.90;999.90;;;7.40;99.90;;;;;;5055950;28;20446;-71
2022/03/17 05:10:35;;;;;;;1999.90;999.90;;;7.40;99.90;;;;;;5055541;28;20482;-71
2022/03/17 05:13:03;;;;;;;1999.90;999.90;;;7.40;99.90;;;;;;5056153;28;20450;-71
2022/03/17 05:15:30;;;;;;;1999.90;999.90;;;7.50;99.90;;;;;;5055895;28;20531;-71
2022/03/17 05:17:56;;;;;;;1999.90;999.90;;;7.50;99.90;;;;;;5056157;28;21175;-70
2022/03/17 05:20:23;;;;;;;1999.90;999.90;;;7.50;99.90;;;;;;5055577;28;21020;-72
2022/03/17 05:22:49;;;;;;;1999.90;999.90;;;7.60;99.90;;;;;;5056670;28;20481;-71
2022/03/17 05:25:18;;;;;;;1999.90;999.90;;;7.60;99.90;;;;;;5055686;28;20882;-71
2022/03/17 05:27:46;;;;;;;1999.90;999.90;;;7.80;99.90;;;;;;5055932;28;20446;-70
2022/03/17 05:30:14;;;;;;;1999.90;999.90;;;7.70;99.90;;;;;;5055400;28;20458;-71
2022/03/17 05:32:41;;;;;;;1999.90;999.90;;;7.70;99.90;;;;;;5056266;28;20504;-71
2022/03/17 05:35:09;;;;;;;1999.90;999.90;;;7.70;99.90;;;;;;5055073;28;20528;-71
2022/03/17 05:37:36;;;;;;;1999.90;999.90;;;7.80;99.90;;;;;;5055288;28;20482;-71
2022/03/17 05:40:05;;;;;;;1999.90;999.90;;;7.80;99.90;;;;;;5055561;28;20511;-71
2022/03/17 05:42:33;;;;;;;1999.90;999.90;;;7.90;99.90;;;;;;5054893;28;20541;-70
2022/03/17 05:45:00;;;;;;;1999.90;999.90;;;7.80;99.90;;;;;;5055622;28;20484;-71
2022/03/17 05:47:34;;;;;;;1999.90;999.90;;;7.80;99.90;;;;;;5055696;28;20446;-70
2022/03/17 05:50:02;;;;;;;1999.90;999.90;;;7.70;99.90;;;;;;5055501;28;20442;-71
2022/03/17 05:52:29;;;;;;;1999.90;999.90;;;7.60;99.90;;;;;;5054740;28;21089;-71
2022/03/17 05:54:55;;;;;;;1999.90;999.90;;;7.60;99.90;;;;;;5055836;28;20462;-71
2022/03/17 05:57:22;;;;;;;1999.90;999.90;;;7.50;99.90;;;;;;5055295;28;20486;-72
2022/03/17 05:59:50;;;;;;;1999.90;999.90;;;7.50;99.90;;;;;;5055374;28;20450;-70
2022/03/17 06:02:16;;;;;;;1999.90;999.90;;;7.40;99.90;;;;;;5055423;28;21016;-71
2022/03/17 06:04:43;;;;;;;1999.90;999.90;;;7.40;99.90;;;;;;5058053;28;20450;-70
2022/03/17 06:07:10;;;;;;;1999.90;999.90;;;7.40;99.90;;;;;;5059244;28;20443;-71
2022/03/17 06:09:38;;;;;;;1999.90;999.90;;;7.50;99.90;;;;;;5058901;28;20472;-70
2022/03/17 06:12:06;;;;;;;1999.90;999.90;;;7.50;99.90;;;;;;5058735;28;20450;-71
2022/03/17 06:14:32;;;;;;;1999.90;999.90;;;7.60;99.90;;;;;;5058786;28;20571;-72
2022/03/17 06:17:00;;;;;;;1999.90;999.90;;;7.80;99.90;;;;;;5058897;28;21049;-70
2022/03/17 06:19:27;;;;;;;1999.90;999.90;;;8.20;99.90;;;;;;5058428;28;20442;-71
2022/03/17 06:21:54;;;;;;;1999.90;999.90;;;8.40;99.90;;;;;;5057548;28;20446;-70
2022/03/17 06:24:20;;;;;;;1999.90;999.90;;;8.70;99.90;;;;;;5057607;28;20446;-71
2022/03/17 06:26:48;;;;;;;1999.90;999.90;;;8.90;99.90;;;;;;5047172;28;20473;-71
2022/03/17 06:29:15;;;;;;;1999.90;999.90;;;9.00;99.90;;;;;;5057267;28;20472;-71
2022/03/17 06:31:41;;;;;;;1999.90;999.90;;;9.10;99.90;;;;;;5056760;28;20454;-72
2022/03/17 06:34:09;;;;;;;1999.90;999.90;;;9.10;99.90;;;;;;5057484;28;20442;-71
2022/03/17 06:36:36;;;;;;;1999.90;999.90;;;9.10;99.90;;;;;;5056953;28;20540;-71
2022/03/17 06:39:03;;;;;;;1999.90;999.90;;;9.10;99.90;;;;;;5057425;28;20447;-71
2022/03/17 06:41:30;;;;;;;1999.90;999.90;;;9.10;99.90;;;;;;5057533;28;20500;-71
2022/03/17 06:43:56;;;;;;;1999.90;999.90;;;9.20;99.90;;;;;;5057312;28;20458;-71
2022/03/17 06:46:23;;;;;;;1999.90;999.90;;;9.30;99.90;;;;;;5057179;28;20474;-71
2022/03/17 06:48:49;;;;;;;1999.90;999.90;;;9.30;99.90;;;;;;5057479;28;20600;-71
2022/03/17 06:51:17;;;;;;;1999.90;999.90;;;9.30;99.90;;;;;;5056136;28;20446;-71
2022/03/17 06:53:44;;;;;;;1999.90;999.90;;;9.40;99.90;;;;;;5057900;28;20442;-71
2022/03/17 06:56:11;;;;;;;1999.90;999.90;;;9.40;99.90;;;;;;5076435;23;20491;-69
2022/03/17 06:58:39;;;;;;;1999.90;999.90;;;9.40;99.90;;;;;;5030635;28;20541;-68
2022/03/17 07:01:06;;;;;;;1999.90;999.90;;;9.40;99.90;;;;;;5035263;28;20443;-69
2022/03/17 07:03:32;;;;;;;1999.90;999.90;;;9.40;99.90;;;;;;5051978;28;20472;-69
2022/03/17 07:05:59;;;;;;;1999.90;999.90;;;9.40;99.90;;;;;;5053448;28;20471;-69
2022/03/17 07:08:27;;;;;;;1999.90;999.90;;;9.40;99.90;;;;;;5053354;28;20443;-69
2022/03/17 07:10:53;;;;;;;1999.90;999.90;;;9.50;99.90;;;;;;5036509;28;20451;-69
2022/03/17 07:13:20;;;;;;;1999.90;999.90;;;9.60;99.90;;;;;;5034412;28;20447;-70
2022/03/17 07:15:47;;;;;;;1999.90;999.90;;;9.70;99.90;;;;;;5032945;28;20525;-69
2022/03/17 07:18:13;;;;;;;1999.90;999.90;;;9.70;99.90;;;;;;5033630;28;20475;-70
2022/03/17 07:20:40;;;;;;;1999.90;999.90;;;9.70;99.90;;;;;;5032980;28;21001;-70
2022/03/17 07:23:07;;;;;;;1999.90;999.90;;;9.70;99.90;;;;;;5033106;28;20451;-69
2022/03/17 07:25:35;;;;;;;1999.90;999.90;;;9.70;99.90;;;;;;5033882;28;20451;-69
2022/03/17 07:28:01;;;;;;;1999.90;999.90;;;9.70;99.90;;;;;;5033793;28;20509;-71
2022/03/17 07:30:28;;;;;;;1999.90;999.90;;;9.70;99.90;;;;;;5032806;28;21028;-72
2022/03/17 07:32:58;;;;;;;1999.90;999.90;;;9.70;99.90;;;;;;5032403;28;20498;-71
2022/03/17 07:35:25;;;;;;;1999.90;999.90;;;9.80;99.90;;;;;;5033755;28;20447;-72
2022/03/17 07:37:52;;;;;;;1999.90;999.90;;;9.80;99.90;;;;;;5028909;28;20494;-72
2022/03/17 07:40:19;;;;;;;1999.90;999.90;;;9.80;99.90;;;;;;5033040;28;20447;-72
2022/03/17 07:42:47;;;;;;;1999.90;999.90;;;9.90;99.90;;;;;;5033059;28;20569;-72
2022/03/17 07:45:14;;;;;;;1999.90;999.90;;;10.10;99.90;;;;;;5032891;28;20863;-71
2022/03/17 07:47:51;;;;;;;1999.90;999.90;;;10.10;99.90;;;;;;5033135;28;20998;-72
2022/03/17 07:50:19;;;;;;;1999.90;999.90;;;10.10;99.90;;;;;;5033212;28;20522;-72
2022/03/17 07:52:45;;;;;;;1999.90;999.90;;;10.20;99.90;;;;;;5033363;28;20451;-72
2022/03/17 07:55:13;;;;;;;1999.90;999.90;;;10.20;99.90;;;;;;5033298;28;20805;-72
2022/03/17 07:57:40;;;;;;;1999.90;999.90;;;10.30;99.90;;;;;;5030748;28;20482;-72
2022/03/17 08:00:11;;;;;;;1999.90;999.90;;;10.30;99.90;;;;;;5029940;28;20871;-70
2022/03/17 08:02:38;;;;;;;1999.90;999.90;;;10.30;99.90;;;;;;5032423;28;20439;-72
2022/03/17 08:05:05;;;;;;;1999.90;999.90;;;10.30;99.90;;;;;;5030690;28;20455;-72
2022/03/17 08:07:33;;;;;;;1999.90;999.90;;;10.40;99.90;;;;;;5031398;28;20515;-72
2022/03/17 08:09:59;;;;;;;1999.90;999.90;;;10.50;99.90;;;;;;5030933;28;20454;-72
2022/03/17 08:12:27;;;;;;;1999.90;999.90;;;10.50;99.90;;;;;;5032483;28;20509;-72
2022/03/17 08:14:54;;;;;;;1999.90;999.90;;;10.60;99.90;;;;;;5032803;28;20913;-71
2022/03/17 08:17:22;;;;;;;1999.90;999.90;;;10.70;99.90;;;;;;5032650;28;20907;-72
2022/03/17 08:19:49;;;;;;;1999.90;999.90;;;10.70;99.90;;;;;;5032146;28;20448;-72
2022/03/17 08:22:15;;;;;;;1999.90;999.90;;;10.70;99.90;;;;;;5031021;28;20463;-70
2022/03/17 08:24:42;;;;;;;1999.90;999.90;;;10.80;99.90;;;;;;5031125;28;20525;-69
2022/03/17 08:27:08;;;;;;;1999.90;999.90;;;10.80;99.90;;;;;;5026144;28;20537;-72
2022/03/17 08:29:38;;;;;;;1999.90;999.90;;;10.80;99.90;;;;;;5029564;28;20799;-71
2022/03/17 08:32:06;;;;;;;1999.90;999.90;;;10.80;99.90;;;;;;5027530;28;20563;-72
2022/03/17 08:34:34;;;;;;;1999.90;999.90;;;10.90;99.90;;;;;;5031334;28;20471;-72
2022/03/17 08:37:00;;;;;;;1999.90;999.90;;;11.00;99.90;;;;;;5030908;28;20479;-72
2022/03/17 08:39:28;;;;;;;1999.90;999.90;;;11.00;99.90;;;;;;5031648;28;20517;-72
2022/03/17 08:41:56;;;;;;;1999.90;999.90;;;11.10;99.90;;;;;;5031108;28;21029;-72
2022/03/17 08:44:23;;;;;;;1999.90;999.90;;;11.20;99.90;;;;;;5030884;28;20464;-69
2022/03/17 08:49:36;;;;;;;1999.90;999.90;;;11.30;99.90;;;;;;5030036;28;20585;-72
2022/03/17 08:52:03;;;;;;;1999.90;999.90;;;11.40;99.90;;;;;;5032082;28;20447;-69
2022/03/17 08:54:35;;;;;;;1999.90;999.90;;;11.60;99.90;;;;;;5030318;28;20516;-71
2022/03/17 08:57:04;;;;;;;1999.90;999.90;;;11.90;99.90;;;;;;5031676;28;20531;-71
2022/03/17 08:59:33;;;;;;;1999.90;999.90;;;12.20;99.90;;;;;;5029291;28;20516;-70
2022/03/17 09:02:00;;;;;;;1999.90;999.90;;;12.40;99.90;;;;;;5030865;28;20475;-70
2022/03/17 09:04:28;;;;;;;1999.90;999.90;;;12.40;99.90;;;;;;5029456;28;20467;-69
2022/03/17 09:06:58;;;;;;;1999.90;999.90;;;12.60;99.90;;;;;;5021946;28;20561;-69
2022/03/17 09:09:25;;;;;;;1999.90;999.90;;;12.70;99.90;;;;;;5021521;28;20491;-72
2022/03/17 09:11:52;;;;;;;1999.90;999.90;;;12.80;99.90;;;;;;5026746;28;20467;-69
2022/03/17 09:14:19;;;;;;;1999.90;999.90;;;13.20;99.90;;;;;;5027646;28;20613;-69
2022/03/17 09:16:45;;;;;;;1999.90;999.90;;;13.30;99.90;;;;;;5024927;28;20486;-69
2022/03/17 09:19:12;;;;;;;1999.90;999.90;;;13.30;99.90;;;;;;5025156;28;20494;-72
2022/03/17 09:21:39;;;;;;;1999.90;999.90;;;13.20;99.90;;;;;;5027851;28;20514;-70
2022/03/17 09:24:08;;;;;;;1999.90;999.90;;;13.20;99.90;;;;;;5029559;28;20921;-69
2022/03/17 09:26:34;;;;;;;1999.90;999.90;;;13.20;99.90;;;;;;5029764;28;20487;-72
2022/03/17 09:29:01;;;;;;;1999.90;999.90;;;13.20;99.90;;;;;;5029473;28;21895;-71
2022/03/17 09:31:28;;;;;;;1999.90;999.90;;;13.30;99.90;;;;;;5028993;28;20467;-71
2022/03/17 09:33:55;;;;;;;1999.90;999.90;;;13.20;99.90;;;;;;5028241;28;20464;-73
2022/03/17 09:36:22;;;;;;;1999.90;999.90;;;13.20;99.90;;;;;;5030189;28;20565;-72
2022/03/17 09:39:39;;;;;;;1999.90;999.90;;;13.20;99.90;;;;;;5029036;28;20576;-71
2022/03/17 09:41:38;;;;;;;1999.90;999.90;;;13.00;99.90;;;;;;5031512;28;20469;-72
2022/03/17 09:44:05;;;;;;;1999.90;999.90;;;13.10;99.90;;;;;;5033178;28;20463;-72
2022/03/17 09:46:33;;;;;;;1999.90;999.90;;;13.00;99.90;;;;;;5033856;28;20545;-71
2022/03/17 09:49:01;;;;;;;1999.90;999.90;;;12.90;99.90;;;;;;5033256;28;20950;-71
2022/03/17 09:51:29;;;;;;;1999.90;999.90;;;12.80;99.90;;;;;;5031073;28;20467;-70
2022/03/17 09:54:00;;;;;;;1999.90;999.90;;;12.80;99.90;;;;;;5031973;28;20520;-70
2022/03/17 09:56:28;;;;;;;1999.90;999.90;;;12.70;99.90;;;;;;5033454;28;20879;-71
2022/03/17 09:58:58;;;;;;;1999.90;999.90;;;12.70;99.90;;;;;;5031981;28;20611;-70
2022/03/17 10:01:28;;;;;;;1999.90;999.90;;;12.60;99.90;;;;;;5033796;28;20489;-72
2022/03/17 10:03:59;;;;;;;1999.90;999.90;;;12.70;99.90;;;;;;5032707;28;20525;-71
2022/03/17 10:06:26;;;;;;;1999.90;999.90;;;12.70;99.90;;;;;;5029615;28;20474;-70
2022/03/17 10:08:54;;;;;;;1999.90;999.90;;;12.70;99.90;;;;;;5030518;28;20451;-70
2022/03/17 10:11:26;;;;;;;1999.90;999.90;;;12.70;99.90;;;;;;5034186;28;20451;-71
2022/03/17 10:13:56;;;;;;;1999.90;999.90;;;12.70;99.90;;;;;;5031996;28;20465;-71
2022/03/17 10:16:26;;;;;;;1999.90;999.90;;;12.90;99.90;;;;;;5033456;28;20911;-72
2022/03/17 10:19:00;;;;;;;1999.90;999.90;;;13.00;99.90;;;;;;5031844;28;20490;-72
2022/03/17 10:21:28;;;;;;;1999.90;999.90;;;13.00;99.90;;;;;;5032017;28;20467;-71
2022/03/17 10:23:56;;;;;;;1999.90;999.90;;;13.00;99.90;;;;;;5031991;28;20505;-70
2022/03/17 10:26:36;;;;;;;1999.90;999.90;;;13.00;99.60;;;;;;5034096;28;20485;-70
2022/03/17 10:29:08;;;;;;;1999.90;999.90;;;13.10;99.70;;;;;;5034026;28;20579;-70
2022/03/17 10:34:30;;;;;;;1999.90;999.90;;;13.20;99.60;;;;;;5130596;27;20532;-71
2022/03/17 10:37:11;;;;;;;1999.90;999.90;;;13.50;99.00;;;;;;5128917;28;20463;-68
2022/03/17 10:39:43;;;;;;;1999.90;999.90;;;13.30;99.20;;;;;;5119515;28;20459;-71
2022/03/17 10:42:15;;;;;;;1999.90;999.90;;;13.50;99.90;;;;;;5122340;28;20463;-69
2022/03/17 10:44:45;;;;;;;1999.90;999.90;;;13.50;99.90;;;;;;5128121;27;20897;-70
2022/03/17 10:47:12;;;;;;;1999.90;999.90;;;13.30;99.90;;;;;;5129182;27;20828;-70
2022/03/17 10:50:03;;;;;;;1999.90;999.90;;;13.20;99.70;;;;;;5131228;27;20528;-69
2022/03/17 10:52:53;;;;;;;1999.90;999.90;;;13.20;99.90;;;;;;5121815;28;20510;-71
2022/03/17 10:55:23;;;;;;;1999.90;999.90;;;13.20;99.90;;;;;;5125394;28;20459;-72
2022/03/17 10:57:50;;;;;;;1999.90;999.90;;;13.10;99.80;;;;;;5128973;27;20462;-72
2022/03/17 11:00:22;;;;;;;1999.90;999.90;;;13.00;99.90;;;;;;5121425;28;20447;-70
2022/03/17 11:02:51;;;;;;;1999.90;999.90;;;12.90;99.90;;;;;;5124902;27;20515;-71
2022/03/17 11:05:20;;;;;;;1999.90;999.90;;;12.80;99.90;;;;;;5126756;28;20520;-70
2022/03/17 11:07:47;;;;;;;1999.90;999.90;;;12.50;99.90;;;;;;5128875;27;20535;-69
2022/03/17 11:10:18;;;;;;;1999.90;999.90;;;12.40;99.90;;;;;;5121660;28;20496;-69
2022/03/17 11:12:45;;;;;;;1999.90;999.90;;;12.40;99.90;;;;;;5129773;27;20883;-70
2022/03/17 11:15:12;;;;;;;1999.90;999.90;;;12.40;99.90;;;;;;5127704;28;20462;-71
2022/03/17 11:17:44;;;;;;;1999.90;999.90;;;12.20;99.90;;;;;;5127273;27;20482;-70
2022/03/17 11:20:13;;;;;;;1999.90;999.90;;;12.20;99.90;;;;;;5127907;27;20515;-68
2022/03/17 11:22:41;;;;;;;1999.90;999.90;;;12.20;99.90;;;;;;5129449;27;20855;-70
2022/03/17 11:25:23;;;;;;;1999.90;999.90;;;12.10;99.90;;;;;;5121216;27;20532;-68
2022/03/17 11:27:56;;;;;;;1999.90;999.90;;;12.20;99.90;;;;;;5121086;28;20482;-69
2022/03/17 11:30:23;;;;;;;1999.90;999.90;;;12.00;99.90;;;;;;5122773;28;20606;-70
2022/03/17 11:32:54;;;;;;;1999.90;999.90;;;12.00;99.90;;;;;;5127747;27;20505;-70
2022/03/17 11:35:22;;;;;;;1999.90;999.90;;;12.00;99.90;;;;;;5123349;28;20455;-69
2022/03/17 11:37:50;;;;;;;1999.90;999.90;;;11.90;99.90;;;;;;5128696;27;20466;-68
2022/03/17 11:40:19;;;;;;;1999.90;999.90;;;11.80;99.90;;;;;;5125544;27;20471;-69
2022/03/17 11:42:52;;;;;;;1999.90;999.90;;;11.80;99.90;;;;;;5128639;27;20439;-69
2022/03/17 11:45:42;;;;;;;1999.90;999.90;;;11.70;99.90;;;;;;5115104;28;20464;-69
2022/03/17 11:48:12;;;;;;;1999.90;999.90;;;11.60;99.90;;;;;;5112523;28;20463;-69
2022/03/17 11:50:48;;;;;;;1999.90;999.90;;;11.50;99.90;;;;;;5111008;28;21037;-70
2022/03/17 11:53:38;;;;;;;1999.90;999.90;;;11.40;99.90;;;;;;5113152;27;20512;-70
2022/03/17 11:56:05;;;;;;;1999.90;999.90;;;11.30;99.90;;;;;;5114647;28;20503;-71
2022/03/17 11:58:42;;;;;;;1999.90;999.90;;;11.20;99.90;;;;;;5113769;28;20808;-70
2022/03/17 12:01:11;;;;;;;1999.90;999.90;;;11.00;99.90;;;;;;5113572;28;20462;-71
2022/03/17 12:03:39;;;;;;;1999.90;999.90;;;10.80;99.90;;;;;;5111074;28;20466;-72
2022/03/17 12:06:10;;;;;;;1999.90;999.90;;;10.70;99.90;;;;;;5109255;28;20536;-72
2022/03/17 12:08:41;;;;;;;1999.90;999.90;;;10.60;99.90;;;;;;5102171;28;20970;-70
2022/03/17 12:11:10;;;;;;;1999.90;999.90;;;10.50;99.90;;;;;;5109764;28;20477;-70
2022/03/17 12:13:37;;;;;;;1999.90;999.90;;;10.50;99.90;;;;;;5106372;28;20479;-70
2022/03/17 12:16:05;;;;;;;1999.90;999.90;;;10.40;99.90;;;;;;5101419;28;20545;-72
2022/03/17 12:19:02;;;;;;;1999.90;999.90;;;10.40;99.90;;;;;;5095792;28;20449;-72
2022/03/17 12:22:04;;;;;;;1999.90;999.90;;;10.30;99.90;;;;;;5110430;28;20927;-70
2022/03/17 12:24:38;;;;;;;1999.90;999.90;;;10.40;99.90;;;;;;5103038;28;20809;-73
2022/03/17 12:27:05;;;;;;;1999.90;999.90;;;10.20;99.90;;;;;;5113976;28;20470;-71
2022/03/17 12:29:32;;;;;;;1999.90;999.90;;;10.20;99.90;;;;;;5106515;28;20436;-70